Time;durP1;ratioP1;P1;durP2;ratioP2;P2;SDS_P1;SDS_P2;PMS_P1;PMS_P2;Temp;Humidity;BMP_temperature;BMP_pressure;BME280_temperature;BME280_humidity;BME280_pressure;Samples;Min_cycle;Max_cycle;Signal;HPM_P1;HPM_P2
2022/04/10 00:01:08;;;;;;;11.13;4.82;;;;;;;5.09;77.12;101731.84;5032354;28;20054;-52
2022/04/10 00:03:36;;;;;;;9.35;4.18;;;;;;;5.08;76.95;101736.41;5033112;28;20463;-48
2022/04/10 00:06:04;;;;;;;8.95;4.50;;;;;;;5.09;77.04;101740.75;5033500;28;20088;-50
2022/04/10 00:08:32;;;;;;;12.60;4.45;;;;;;;5.07;76.99;101737.44;5033104;28;20124;-51
2022/04/10 00:11:00;;;;;;;11.90;4.50;;;;;;;5.06;77.21;101735.78;5033306;28;20041;-50
2022/04/10 00:13:28;;;;;;;11.80;4.22;;;;;;;5.05;77.36;101734.13;5032979;28;20075;-50
2022/04/10 00:15:56;;;;;;;21.17;5.10;;;;;;;5.04;77.26;101739.75;5033346;28;20076;-49
2022/04/10 00:18:24;;;;;;;11.40;4.40;;;;;;;5.00;77.40;101733.91;5032090;28;20053;-50
2022/04/10 00:20:52;;;;;;;12.73;4.30;;;;;;;5.01;77.41;101741.00;5015974;28;20048;-48
2022/04/10 00:23:21;;;;;;;14.23;4.60;;;;;;;4.98;77.08;101736.00;5034578;28;20049;-47
2022/04/10 00:25:49;;;;;;;7.93;3.67;;;;;;;4.98;77.37;101736.00;5035217;28;20033;-47
2022/04/10 00:28:17;;;;;;;11.85;5.13;;;;;;;4.97;77.50;101734.34;5044134;28;20055;-49
2022/04/10 00:30:45;;;;;;;13.15;4.65;;;;;;;4.96;77.39;101732.69;5016037;28;20053;-50
2022/04/10 00:33:13;;;;;;;11.85;4.43;;;;;;;4.95;77.54;101736.41;5048851;28;20041;-50
2022/04/10 00:35:41;;;;;;;12.02;4.40;;;;;;;4.95;77.47;101736.41;5033621;28;20435;-50
2022/04/10 00:38:09;;;;;;;11.77;4.20;;;;;;;4.94;77.63;101739.34;5033300;28;20068;-54
2022/04/10 00:40:37;;;;;;;10.30;4.22;;;;;;;4.92;77.48;101736.81;5033267;28;20042;-49
2022/04/10 00:43:05;;;;;;;11.18;4.85;;;;;;;4.91;77.53;101736.00;5039407;28;20041;-49
2022/04/10 00:45:33;;;;;;;12.32;4.40;;;;;;;4.90;77.55;101731.63;5052050;28;20045;-51
2022/04/10 00:48:01;;;;;;;10.93;4.05;;;;;;;4.89;77.33;101731.84;5052997;28;20044;-52
2022/04/10 00:50:30;;;;;;;9.85;3.97;;;;;;;4.88;77.70;101732.88;5052780;28;20397;-52
2022/04/10 00:52:59;;;;;;;11.27;4.47;;;;;;;4.87;77.72;101723.94;5032414;28;20128;-50
2022/04/10 00:55:28;;;;;;;12.05;4.38;;;;;;;4.86;78.10;101726.88;5015535;28;20563;-50
2022/04/10 00:57:57;;;;;;;12.27;4.10;;;;;;;4.85;77.48;101722.50;5033968;28;20057;-49
2022/04/10 01:00:25;;;;;;;10.40;3.92;;;;;;;4.84;77.80;101723.56;5033143;28;20533;-51
2022/04/10 01:02:53;;;;;;;11.23;4.00;;;;;;;4.83;77.67;101719.16;5033916;28;20128;-50
2022/04/10 01:05:21;;;;;;;11.63;4.43;;;;;;;4.83;77.77;101721.88;5033082;28;20037;-49
2022/04/10 01:07:49;;;;;;;12.32;4.65;;;;;;;4.84;77.26;101728.94;5033286;28;20496;-51
2022/04/10 01:10:18;;;;;;;11.05;4.50;;;;;;;4.83;77.72;101727.28;5032013;28;20048;-51
2022/04/10 01:12:46;;;;;;;12.75;3.90;;;;;;;4.83;77.76;101729.97;5045515;28;20515;-48
2022/04/10 01:15:19;;;;;;;10.15;3.95;;;;;;;4.81;77.57;101724.78;5035767;28;20037;-47
2022/04/10 01:17:48;;;;;;;10.60;4.10;;;;;;;4.81;77.50;101729.34;5042675;28;20492;-47
2022/04/10 01:20:17;;;;;;;9.93;3.88;;;;;;;4.80;77.63;101727.69;5015700;28;20125;-47
2022/04/10 01:22:49;;;;;;;11.82;4.13;;;;;;;4.80;77.51;101728.50;5028343;28;20488;-47
2022/04/10 01:25:17;;;;;;;14.48;4.45;;;;;;;4.78;77.72;101725.19;5039315;28;20125;-48
2022/04/10 01:27:45;;;;;;;11.98;4.35;;;;;;;4.77;77.49;101723.53;5045023;28;20045;-47
2022/04/10 01:30:16;;;;;;;11.40;4.32;;;;;;;4.75;77.79;101728.31;5035667;28;20049;-47
2022/04/10 01:32:47;;;;;;;11.68;4.13;;;;;;;4.76;77.40;101726.44;5039834;28;20064;-47
2022/04/10 01:35:15;;;;;;;13.48;4.20;;;;;;;4.76;77.87;101723.72;5019769;28;20041;-47
2022/04/10 01:37:46;;;;;;;12.00;4.25;;;;;;;4.77;77.34;101728.13;5039481;28;20510;-48
2022/04/10 01:40:21;;;;;;;12.00;4.20;;;;;;;4.76;77.61;101731.84;5028925;28;20042;-47
2022/04/10 01:42:52;;;;;;;10.25;4.32;;;;;;;4.76;77.34;101734.53;5045782;28;20111;-52
2022/04/10 01:45:20;;;;;;;14.45;4.68;;;;;;;4.75;77.23;101738.28;5044910;28;20040;-52
2022/04/10 01:47:52;;;;;;;8.13;3.83;;;;;;;4.74;77.24;101733.91;5055197;28;20128;-50
2022/04/10 01:50:22;;;;;;;10.23;4.03;;;;;;;4.74;77.61;101728.50;5022113;28;20029;-51
2022/04/10 01:52:52;;;;;;;10.48;3.90;;;;;;;4.72;77.75;101736.84;5043224;28;20106;-52
2022/04/10 01:55:22;;;;;;;9.23;3.90;;;;;;;4.70;77.18;101739.72;5046783;28;20083;-51
2022/04/10 01:57:50;;;;;;;11.35;4.50;;;;;;;4.67;77.58;101740.16;5048387;28;20037;-51
2022/04/10 02:00:18;;;;;;;12.02;4.25;;;;;;;4.67;77.71;101742.84;5054662;28;20483;-49
2022/04/10 02:02:47;;;;;;;9.55;4.00;;;;;;;4.67;77.78;101744.72;5052734;28;20052;-49
2022/04/10 02:05:15;;;;;;;10.52;4.45;;;;;;;4.66;77.69;101749.25;5052526;28;20483;-49
2022/04/10 02:07:44;;;;;;;13.57;4.82;;;;;;;4.64;77.68;101745.97;5034877;28;20041;-50
2022/04/10 02:10:13;;;;;;;12.43;4.20;;;;;;;4.62;77.44;101748.03;5034816;28;20515;-49
2022/04/10 02:12:42;;;;;;;12.00;4.68;;;;;;;4.63;77.81;101749.69;5034534;28;20079;-50
2022/04/10 02:15:10;;;;;;;8.63;3.90;;;;;;;4.63;77.46;101754.25;5034716;28;20152;-49
2022/04/10 02:17:38;;;;;;;13.73;4.60;;;;;;;4.61;77.70;101751.75;5034604;28;20053;-49
2022/04/10 02:20:08;;;;;;;11.00;4.22;;;;;;;4.62;77.53;101756.13;5034024;28;20068;-49
2022/04/10 02:22:36;;;;;;;12.77;4.50;;;;;;;4.62;77.71;101758.00;5024843;28;20041;-49
2022/04/10 02:25:05;;;;;;;10.75;4.30;;;;;;;4.60;77.61;101760.91;5034537;28;20038;-48
2022/04/10 02:27:33;;;;;;;11.07;4.20;;;;;;;4.58;77.39;101762.97;5034321;28;20064;-51
2022/04/10 02:30:02;;;;;;;12.13;4.32;;;;;;;4.57;77.35;101764.00;5034124;28;20037;-52
2022/04/10 02:32:31;;;;;;;11.63;3.72;;;;;;;4.53;77.84;101759.22;5033724;28;20037;-50
2022/04/10 02:35:00;;;;;;;11.55;4.30;;;;;;;4.51;77.79;101755.91;5033718;28;20042;-49
2022/04/10 02:37:29;;;;;;;12.50;4.20;;;;;;;4.49;77.87;101758.78;5033933;28;20044;-52
2022/04/10 02:39:56;;;;;;;11.88;4.22;;;;;;;4.50;78.06;101755.06;5033952;28;20068;-49
2022/04/10 02:42:27;;;;;;;11.13;4.40;;;;;;;4.52;77.91;101758.38;5035125;28;20160;-51
2022/04/10 02:44:56;;;;;;;11.07;4.22;;;;;;;4.50;78.41;101755.06;5034059;28;20049;-51
2022/04/10 02:47:24;;;;;;;9.27;4.05;;;;;;;4.49;77.63;101759.63;5035246;28;20041;-50
2022/04/10 02:49:52;;;;;;;9.00;3.80;;;;;;;4.48;77.81;101762.53;5034873;28;20042;-51
2022/04/10 02:52:22;;;;;;;11.15;4.20;;;;;;;4.47;78.16;101771.66;5045749;28;20400;-48
2022/04/10 02:54:51;;;;;;;13.00;4.65;;;;;;;4.48;78.09;101757.97;5033378;28;20448;-51
2022/04/10 02:57:38;;;;;;;12.05;4.05;;;;;;;4.52;78.49;101774.56;5034039;28;20041;-50
2022/04/10 03:00:24;;;;;;;13.48;4.50;;;;;;;4.54;78.37;101772.50;5039463;28;20037;-50
2022/04/10 03:03:11;;;;;;;12.15;4.05;;;;;;;4.55;77.88;101773.34;5053636;28;20480;-50
2022/04/10 03:05:58;;;;;;;11.63;4.18;;;;;;;4.54;77.77;101772.50;5047878;28;20053;-50
2022/04/10 03:08:44;;;;;;;9.65;4.30;;;;;;;4.52;78.21;101782.66;5045050;28;20055;-49
2022/04/10 03:11:31;;;;;;;13.10;3.92;;;;;;;4.49;78.01;101780.38;5053389;28;20045;-52
2022/04/10 03:14:18;;;;;;;11.50;3.83;;;;;;;4.48;78.34;101784.13;5051829;28;20487;-49
2022/04/10 03:17:06;;;;;;;13.50;4.10;;;;;;;4.46;78.54;101794.28;5053649;28;20126;-52
2022/04/10 03:19:52;;;;;;;14.50;4.50;;;;;;;4.47;78.26;101795.94;5052354;28;20049;-51
2022/04/10 03:22:42;;;;;;;9.45;4.15;;;;;;;4.46;78.61;101789.72;5034585;28;20061;-51
2022/04/10 03:25:29;;;;;;;10.95;4.30;;;;;;;4.49;78.88;101785.78;5034257;28;20038;-51
2022/04/10 03:28:15;;;;;;;12.85;4.20;;;;;;;4.53;78.41;101788.91;5033973;28;20041;-51
2022/04/10 03:31:03;;;;;;;13.02;4.60;;;;;;;4.53;78.34;101799.72;5033100;28;20042;-56
2022/04/10 03:33:52;;;;;;;10.48;3.92;;;;;;;4.49;78.66;101797.41;5050224;28;20044;-52
2022/04/10 03:36:38;;;;;;;10.70;3.78;;;;;;;4.47;78.61;101777.91;5038661;28;20176;-52
2022/04/10 03:39:26;;;;;;;14.55;4.43;;;;;;;4.47;78.90;101793.25;5024354;28;20048;-51
2022/04/10 03:42:13;;;;;;;11.30;4.07;;;;;;;4.44;78.72;101789.09;5052910;28;20037;-49
2022/04/10 03:45:01;;;;;;;9.73;4.22;;;;;;;4.42;79.04;101790.31;5051983;28;20063;-52
2022/04/10 03:47:48;;;;;;;11.10;4.00;;;;;;;4.39;79.49;101796.13;5052772;28;20502;-51
2022/04/10 03:50:39;;;;;;;12.25;4.38;;;;;;;4.38;79.53;101795.31;5045108;28;20401;-51
2022/04/10 03:53:27;;;;;;;12.02;4.25;;;;;;;4.38;79.83;101799.88;5018573;28;20480;-52
2022/04/10 03:56:14;;;;;;;11.18;4.35;;;;;;;4.37;80.00;101804.41;5048928;28;20037;-51
2022/04/10 03:59:00;;;;;;;14.30;4.57;;;;;;;4.38;80.08;101805.28;5032793;28;20041;-51
2022/04/10 04:01:48;;;;;;;13.70;4.40;;;;;;;4.37;79.93;101806.28;5047683;28;20045;-52
2022/04/10 04:04:37;;;;;;;10.50;4.28;;;;;;;4.35;80.31;101811.06;5031472;28;20045;-51
2022/04/10 04:07:24;;;;;;;12.48;3.97;;;;;;;4.33;80.33;101810.44;5017765;28;20037;-51
2022/04/10 04:10:11;;;;;;;9.60;4.45;;;;;;;4.32;80.60;101806.91;5031626;28;20045;-50
2022/04/10 04:12:58;;;;;;;11.60;4.07;;;;;;;4.33;80.34;101813.13;5031137;28;20056;-48
2022/04/10 04:15:45;;;;;;;12.90;4.22;;;;;;;4.34;80.56;101812.09;5045044;28;20518;-52
2022/04/10 04:18:31;;;;;;;11.98;4.43;;;;;;;4.31;80.63;101810.66;5052255;28;20454;-52
2022/04/10 04:21:18;;;;;;;11.07;4.63;;;;;;;4.29;80.75;101811.88;5039795;28;20045;-50
2022/04/10 04:24:05;;;;;;;13.88;4.90;;;;;;;4.29;80.58;101817.28;5032656;28;20095;-54
2022/04/10 04:26:53;;;;;;;15.68;4.72;;;;;;;4.29;80.87;101817.28;5045619;28;20045;-52
2022/04/10 04:29:39;;;;;;;11.23;4.55;;;;;;;4.27;80.67;101820.16;5032593;28;20046;-52
2022/04/10 04:32:27;;;;;;;9.98;4.32;;;;;;;4.25;80.65;101820.34;5033377;28;20156;-51
2022/04/10 04:35:15;;;;;;;13.70;4.53;;;;;;;4.24;80.82;101832.19;5025719;28;20160;-51
2022/04/10 04:38:02;;;;;;;11.90;4.30;;;;;;;4.22;81.28;101834.25;5038705;28;20048;-52
2022/04/10 04:40:50;;;;;;;10.40;4.70;;;;;;;4.23;81.01;101838.63;5050122;28;20064;-52
2022/04/10 04:43:37;;;;;;;10.35;4.22;;;;;;;4.22;81.14;101825.34;5052249;28;20099;-50
2022/04/10 04:46:23;;;;;;;9.48;4.57;;;;;;;4.22;81.71;101828.84;5052973;28;20491;-48
2022/04/10 04:49:10;;;;;;;10.65;4.88;;;;;;;4.24;81.01;101828.66;5049801;28;20477;-51
2022/04/10 04:51:57;;;;;;;9.15;4.55;;;;;;;4.24;81.63;101836.75;5034844;28;20504;-51
2022/04/10 04:54:44;;;;;;;12.68;4.95;;;;;;;4.22;81.42;101828.03;5032261;28;20049;-52
2022/04/10 04:57:31;;;;;;;10.07;4.40;;;;;;;4.22;81.36;101834.25;5033810;28;20041;-51
2022/04/10 05:00:17;;;;;;;17.35;4.88;;;;;;;4.21;81.38;101832.59;5053224;28;20049;-51
2022/04/10 05:03:09;;;;;;;12.23;4.50;;;;;;;4.20;81.10;101833.63;5042163;28;20046;-52
2022/04/10 05:05:56;;;;;;;12.82;5.35;;;;;;;4.20;81.72;101832.78;5021984;28;20624;-48
2022/04/10 05:08:47;;;;;;;9.82;4.72;;;;;;;4.20;81.45;101835.50;5035913;28;20395;-51
2022/04/10 05:11:34;;;;;;;9.73;4.50;;;;;;;4.20;81.32;101847.09;5035682;28;20041;-53
2022/04/10 05:14:22;;;;;;;16.70;4.90;;;;;;;4.19;81.40;101845.44;5037127;28;20040;-50
2022/04/10 05:17:09;;;;;;;12.68;4.50;;;;;;;4.20;81.77;101844.41;5055766;28;20041;-51
2022/04/10 05:20:02;;;;;;;14.45;4.68;;;;;;;4.19;81.98;101841.94;5047865;28;20147;-53
2022/04/10 05:22:51;;;;;;;14.30;4.85;;;;;;;4.19;82.09;101845.44;5035821;28;20042;-51
2022/04/10 05:25:38;;;;;;;15.65;4.90;;;;;;;4.19;82.07;101848.16;5039982;28;20403;-51
2022/04/10 05:28:27;;;;;;;11.55;4.68;;;;;;;4.20;81.92;101859.75;5042470;28;20041;-47
2022/04/10 05:31:13;;;;;;;12.43;4.85;;;;;;;4.22;82.25;101855.84;5035744;28;20045;-51
2022/04/10 05:34:04;;;;;;;11.63;4.40;;;;;;;4.23;82.64;101862.91;5027449;28;20467;-52
2022/04/10 05:36:51;;;;;;;11.88;4.78;;;;;;;4.23;82.44;101862.91;5037533;28;20434;-52
2022/04/10 05:39:39;;;;;;;13.32;4.43;;;;;;;4.25;82.52;101871.59;5036754;28;20160;-51
2022/04/10 05:42:27;;;;;;;13.73;4.43;;;;;;;4.26;82.66;101878.69;5055369;28;20491;-48
2022/04/10 05:45:14;;;;;;;11.25;4.50;;;;;;;4.27;82.12;101884.91;5055242;28;20387;-53
2022/04/10 05:48:07;;;;;;;9.70;4.82;;;;;;;4.28;82.61;101889.25;5041992;28;20052;-51
2022/04/10 05:50:53;;;;;;;13.10;4.53;;;;;;;4.28;82.20;101881.16;5035058;28;20484;-47
2022/04/10 05:53:40;;;;;;;12.90;4.35;;;;;;;4.28;82.82;101889.25;5051654;28;20037;-51
2022/04/10 05:56:27;;;;;;;11.40;4.50;;;;;;;4.31;82.46;101896.97;5037871;28;20041;-51
2022/04/10 05:59:13;;;;;;;10.70;4.82;;;;;;;4.36;82.86;101904.47;5037467;28;20076;-51
2022/04/10 06:02:00;;;;;;;9.70;4.07;;;;;;;4.41;82.50;101910.09;5035022;28;20038;-51
2022/04/10 06:04:48;;;;;;;11.10;4.65;;;;;;;4.41;82.64;101912.78;5036788;28;20033;-51
2022/04/10 06:07:39;;;;;;;12.30;4.65;;;;;;;4.38;82.83;101916.72;5054002;28;20044;-52
2022/04/10 06:10:26;;;;;;;10.82;4.65;;;;;;;4.38;83.07;101911.34;5053975;28;20179;-51
2022/04/10 06:13:13;;;;;;;10.85;4.32;;;;;;;4.39;82.70;101914.84;5053531;28;20048;-51
2022/04/10 06:16:06;;;;;;;9.38;4.22;;;;;;;4.41;83.04;101919.03;5036836;28;20077;-47
2022/04/10 06:18:35;;;;;;;12.00;4.57;;;;;;;4.44;83.58;101917.78;5045594;28;20049;-49
2022/04/10 06:21:05;;;;;;;12.70;4.53;;;;;;;4.46;83.12;101924.66;5037893;28;20475;-47
2022/04/10 06:23:34;;;;;;;11.10;4.50;;;;;;;4.47;83.28;101923.63;5054102;28;20432;-52
2022/04/10 06:26:08;;;;;;;9.98;4.57;;;;;;;4.48;83.38;101919.06;5038142;28;20045;-51
2022/04/10 06:28:36;;;;;;;9.60;4.18;;;;;;;4.49;83.19;101928.81;5055224;28;20041;-47
2022/04/10 06:31:08;;;;;;;12.52;4.57;;;;;;;4.53;83.67;101938.19;5041131;28;20030;-49
2022/04/10 06:33:39;;;;;;;10.15;4.65;;;;;;;4.56;83.51;101932.38;5033875;28;20053;-50
2022/04/10 06:36:07;;;;;;;12.25;4.43;;;;;;;4.58;83.81;101934.88;5054090;28;20450;-49
2022/04/10 06:38:35;;;;;;;10.23;4.10;;;;;;;4.60;83.50;101939.03;5055248;28;20076;-50
2022/04/10 06:41:13;;;;;;;11.63;4.35;;;;;;;4.62;83.57;101941.56;5050711;28;20045;-49
2022/04/10 06:43:42;;;;;;;11.30;4.43;;;;;;;4.65;83.84;101941.97;5024275;28;20071;-52
2022/04/10 06:46:23;;;;;;;9.95;4.38;;;;;;;4.68;83.44;101951.53;5020353;28;20545;-54
2022/04/10 06:49:18;;;;;;;11.63;3.88;;;;;;;4.77;83.95;101952.19;5035469;28;20081;-51
2022/04/10 06:51:47;;;;;;;9.88;3.80;;;;;;;4.81;83.61;101948.91;5038985;28;20037;-52
2022/04/10 06:54:21;;;;;;;7.05;3.30;;;;;;;4.89;83.73;101953.28;5051995;28;20128;-55
2022/04/10 06:56:49;;;;;;;9.05;4.10;;;;;;;4.91;83.77;101951.22;5017660;28;20156;-51
2022/04/10 06:59:18;;;;;;;10.02;3.95;;;;;;;4.90;83.28;101957.63;5036030;28;20037;-51
2022/04/10 07:01:47;;;;;;;9.13;4.18;;;;;;;4.90;83.89;101952.22;5052351;28;20136;-55
2022/04/10 07:04:15;;;;;;;12.68;4.57;;;;;;;4.91;84.20;101956.63;5049376;28;20053;-54
2022/04/10 07:06:46;;;;;;;11.43;4.32;;;;;;;4.93;84.53;101965.34;5033637;28;20044;-52
2022/04/10 07:09:15;;;;;;;8.65;3.80;;;;;;;4.94;84.32;101961.59;5033603;28;20054;-54
2022/04/10 07:11:43;;;;;;;8.80;3.78;;;;;;;4.98;84.33;101962.03;5044963;28;20045;-55
2022/04/10 07:14:23;;;;;;;10.70;4.10;;;;;;;5.03;83.91;101965.78;5042430;28;20063;-55
2022/04/10 07:16:51;;;;;;;9.80;3.67;;;;;;;5.08;84.16;101963.31;5043324;28;20037;-53
2022/04/10 07:19:19;;;;;;;10.95;3.97;;;;;;;5.11;84.09;101976.41;5050809;28;20059;-54
2022/04/10 07:24:37;;;;;;;12.23;4.35;;;;;;;5.17;84.01;101980.19;5050993;28;20041;-56
2022/04/10 07:27:05;;;;;;;11.65;4.70;;;;;;;5.19;83.90;101974.56;5052834;28;20056;-51
2022/04/10 07:29:40;;;;;;;9.48;4.05;;;;;;;5.20;84.33;101978.94;5051360;28;20040;-50
2022/04/10 07:32:15;;;;;;;12.23;4.32;;;;;;;5.21;84.29;101978.72;5037350;28;20068;-52
2022/04/10 07:34:50;;;;;;;14.30;4.13;;;;;;;5.24;84.79;101980.19;5044954;28;20037;-47
2022/04/10 07:37:35;;;;;;;11.65;4.30;;;;;;;5.27;83.84;101982.50;5053021;28;20041;-52
2022/04/10 07:40:04;;;;;;;15.48;4.32;;;;;;;5.31;83.25;101992.66;5041730;28;20091;-51
2022/04/10 07:42:43;;;;;;;11.93;4.30;;;;;;;5.37;83.09;101995.63;5037153;28;20464;-51
2022/04/10 07:48:12;;;;;;;11.30;3.67;;;;;;;5.44;81.47;101999.16;5032755;28;20065;-50
2022/04/10 07:50:40;;;;;;;13.07;4.57;;;;;;;5.50;81.22;102012.66;5032625;28;20063;-51
2022/04/10 07:53:10;;;;;;;9.20;3.63;;;;;;;5.53;81.57;102014.97;5033148;28;20464;-51
2022/04/10 07:55:44;;;;;;;13.73;3.97;;;;;;;5.54;81.24;102021.22;5033160;28;20029;-51
2022/04/10 07:58:11;;;;;;;9.15;3.45;;;;;;;5.53;82.00;102022.25;5037043;28;20041;-54
2022/04/10 08:00:40;;;;;;;13.48;3.67;;;;;;;5.57;83.33;102033.50;5052519;28;20540;-55
2022/04/10 08:03:09;;;;;;;10.45;3.75;;;;;;;5.52;81.67;102053.84;5034519;28;20045;-52
2022/04/10 08:05:59;;;;;;;12.88;3.47;;;;;;;5.43;80.50;102049.66;5053293;28;20045;-52
2022/04/10 08:08:35;;;;;;;11.68;3.78;;;;;;;5.40;79.61;102054.66;5053677;28;20041;-52
2022/04/10 08:11:02;;;;;;;10.55;3.25;;;;;;;5.39;80.06;102059.22;5053526;28;20087;-54
2022/04/10 08:13:33;;;;;;;10.70;3.15;;;;;;;5.37;79.68;102064.00;5052759;28;20048;-54
2022/04/10 08:16:01;;;;;;;13.18;3.47;;;;;;;5.40;80.11;102070.88;5053636;28;20045;-51
2022/04/10 08:18:30;;;;;;;12.15;2.90;;;;;;;5.43;79.54;102065.88;5053437;28;20135;-52
2022/04/10 08:20:58;;;;;;;10.55;3.13;;;;;;;5.50;80.09;102066.72;5053411;28;20045;-54
2022/04/10 08:23:26;;;;;;;8.90;2.72;;;;;;;5.50;79.40;102069.44;5052021;28;20069;-51
2022/04/10 08:25:53;;;;;;;7.90;3.00;;;;;;;5.51;78.62;102060.31;5052744;28;20067;-51
2022/04/10 08:28:21;;;;;;;8.63;3.05;;;;;;;5.55;79.63;102058.03;5053561;28;20053;-55
2022/04/10 08:30:49;;;;;;;8.55;2.60;;;;;;;5.58;79.32;102064.88;5053252;28;20045;-51
2022/04/10 08:33:16;;;;;;;9.93;3.00;;;;;;;5.60;79.00;102063.63;5043044;28;20091;-53
2022/04/10 08:35:44;;;;;;;11.82;3.15;;;;;;;5.63;78.92;102059.69;5033061;28;20037;-50
2022/04/10 08:38:12;;;;;;;11.90;2.92;;;;;;;5.67;78.63;102063.66;5033352;28;20051;-54
2022/04/10 08:40:40;;;;;;;10.35;3.00;;;;;;;5.72;78.91;102066.59;5033221;28;20037;-53
2022/04/10 08:43:09;;;;;;;8.70;2.80;;;;;;;5.76;78.70;102070.56;5033790;28;20438;-51
2022/04/10 08:45:38;;;;;;;9.77;2.72;;;;;;;5.76;78.51;102063.25;5031715;28;20492;-54
2022/04/10 08:48:06;;;;;;;8.55;3.20;;;;;;;5.78;79.25;102065.78;5033190;28;20140;-54
2022/04/10 08:50:34;;;;;;;10.70;3.25;;;;;;;5.79;78.21;102064.72;5033148;28;20052;-53
2022/04/10 08:53:02;;;;;;;8.40;2.60;;;;;;;5.82;78.27;102066.19;5042558;28;20487;-55
2022/04/10 08:55:30;;;;;;;9.30;2.80;;;;;;;5.86;78.96;102062.88;5035022;28;20547;-53
2022/04/10 08:57:57;;;;;;;10.70;3.10;;;;;;;5.91;78.91;102068.47;5052849;28;20045;-51
2022/04/10 09:00:25;;;;;;;8.55;3.38;;;;;;;5.93;78.50;102063.69;5034935;28;20064;-50
2022/04/10 09:02:53;;;;;;;12.00;3.65;;;;;;;5.96;77.35;102074.16;5049491;28;20041;-51
2022/04/10 09:05:22;;;;;;;10.20;3.00;;;;;;;6.00;77.72;102071.03;5051718;28;20037;-52
2022/04/10 09:08:10;;;;;;;10.82;3.17;;;;;;;6.06;77.48;102068.34;5052913;28;20049;-51
2022/04/10 09:10:58;;;;;;;10.75;3.30;;;;;;;6.12;77.51;102072.91;5052855;28;20037;-53
2022/04/10 09:13:35;;;;;;;10.10;3.28;;;;;;;6.17;78.16;102072.28;5037199;28;20092;-52
2022/04/10 09:16:17;;;;;;;13.98;3.90;;;;;;;6.19;78.57;102075.63;5031386;28;20063;-50
2022/04/10 09:19:04;;;;;;;11.00;3.00;;;;;;;6.22;78.28;102072.50;5030186;28;20104;-49
2022/04/10 09:21:33;;;;;;;10.80;3.38;;;;;;;6.28;77.33;102071.69;5031494;28;20090;-48
2022/04/10 09:24:09;;;;;;;9.35;3.10;;;;;;;6.35;76.07;102075.22;5029284;28;20045;-50
2022/04/10 09:26:52;;;;;;;8.67;3.00;;;;;;;6.39;75.82;102068.31;5031816;28;20056;-49
2022/04/10 09:29:24;;;;;;;8.50;2.95;;;;;;;6.43;74.98;102070.63;5032923;28;20041;-45
2022/04/10 09:31:54;;;;;;;7.60;2.70;;;;;;;6.45;74.32;102072.09;5037080;28;20039;-45
2022/04/10 09:34:28;;;;;;;9.38;2.90;;;;;;;6.47;73.81;102067.28;5051056;28;20045;-45
2022/04/10 09:37:16;;;;;;;15.15;3.75;;;;;;;6.56;73.86;102071.44;5052387;28;20037;-45
2022/04/10 09:39:50;;;;;;;10.07;3.50;;;;;;;6.65;72.69;102069.34;5052562;28;20067;-49
2022/04/10 09:42:18;;;;;;;10.23;3.30;;;;;;;6.68;71.20;102066.19;5050833;28;20044;-50
2022/04/10 09:45:06;;;;;;;8.18;2.65;;;;;;;6.76;72.04;102067.88;5041110;28;20049;-50
2022/04/10 09:47:34;;;;;;;8.65;2.70;;;;;;;6.83;71.21;102064.09;5054686;28;20048;-49
2022/04/10 09:50:05;;;;;;;9.82;3.58;;;;;;;6.95;71.47;102066.13;5055788;28;20047;-49
2022/04/10 09:52:39;;;;;;;10.02;3.30;;;;;;;6.97;70.91;102074.88;5043471;28;20479;-47
2022/04/10 09:55:08;;;;;;;8.98;3.22;;;;;;;6.93;68.34;102070.97;5034419;28;20049;-47
2022/04/10 09:57:36;;;;;;;11.52;3.10;;;;;;;6.91;66.78;102076.56;5035976;28;20041;-48
2022/04/10 10:00:06;;;;;;;6.70;2.97;;;;;;;6.89;67.55;102072.41;5034512;28;20048;-50
2022/04/10 10:02:38;;;;;;;9.90;2.88;;;;;;;6.92;65.74;102066.56;5036624;28;20045;-48
2022/04/10 10:05:07;;;;;;;10.75;2.88;;;;;;;6.93;66.84;102063.66;5035807;28;20049;-48
2022/04/10 10:07:36;;;;;;;10.70;2.92;;;;;;;6.94;66.43;102064.47;5034521;28;20048;-46
2022/04/10 10:10:04;;;;;;;10.40;2.50;;;;;;;6.96;67.48;102067.81;5035826;28;20045;-46
2022/04/10 10:12:32;;;;;;;11.43;2.72;;;;;;;7.02;67.31;102066.94;5032610;28;20492;-50
2022/04/10 10:15:00;;;;;;;7.03;2.45;;;;;;;7.06;64.26;102062.78;5054405;28;20162;-50
2022/04/10 10:17:28;;;;;;;8.27;2.70;;;;;;;7.07;63.33;102067.16;5055403;28;20037;-49
2022/04/10 10:19:57;;;;;;;7.88;2.80;;;;;;;7.07;64.03;102059.03;5054226;28;20486;-50
2022/04/10 10:22:25;;;;;;;7.28;2.50;;;;;;;7.11;64.75;102065.66;5053790;28;20175;-48
2022/04/10 10:25:09;;;;;;;7.82;2.45;;;;;;;7.17;65.01;102056.69;5055453;28;20045;-50
2022/04/10 10:28:14;;;;;;;12.43;2.80;;;;;;;7.27;63.78;102055.41;5055399;28;20063;-47
2022/04/10 10:31:20;;;;;;;9.10;2.88;;;;;;;7.35;64.13;102061.41;5051958;28;20052;-50
2022/04/10 10:34:06;;;;;;;6.25;2.22;;;;;;;7.33;62.04;102051.81;5034833;28;20038;-49
2022/04/10 10:36:34;;;;;;;6.60;2.60;;;;;;;7.33;62.46;102052.63;5033898;28;20053;-49
2022/04/10 10:39:05;;;;;;;8.95;2.97;;;;;;;7.38;62.57;102057.41;5035178;28;20046;-48
2022/04/10 10:41:34;;;;;;;8.68;2.70;;;;;;;7.43;63.46;102049.47;5036297;28;20400;-50
2022/04/10 10:44:27;;;;;;;6.90;2.80;;;;;;;7.52;62.96;102058.19;5034945;28;20137;-50
2022/04/10 10:46:58;;;;;;;8.60;2.95;;;;;;;7.64;62.48;102057.28;5034846;28;20041;-48
2022/04/10 10:49:30;;;;;;;6.50;2.40;;;;;;;7.60;61.12;102053.34;5033679;28;20503;-47
2022/04/10 10:52:11;;;;;;;9.55;3.10;;;;;;;7.57;62.22;102058.38;5048355;28;20041;-49
2022/04/10 10:54:45;;;;;;;7.50;2.50;;;;;;;7.55;58.19;102060.47;5052708;28;20204;-48
2022/04/10 10:57:42;;;;;;;8.52;2.60;;;;;;;7.62;57.83;102061.25;5053722;28;20056;-50
2022/04/10 11:00:17;;;;;;;6.18;2.45;;;;;;;7.68;58.71;102050.38;5037582;28;20418;-44
2022/04/10 11:02:53;;;;;;;10.95;3.00;;;;;;;7.75;60.07;102063.06;5034639;28;20496;-48
2022/04/10 11:05:24;;;;;;;;;;;;;;;7.76;57.31;102051.16;5035222;28;20037;-46
2022/04/10 11:08:08;;;;;;;9.50;2.58;;;;;;;7.79;56.75;102050.72;5034443;28;20006;-49
2022/04/10 11:10:50;;;;;;;8.70;2.55;;;;;;;7.86;57.44;102041.50;5035411;28;20504;-48
2022/04/10 11:13:19;;;;;;;10.68;2.90;;;;;;;7.93;57.84;102046.84;5032602;28;20049;-48
2022/04/10 11:15:48;;;;;;;6.60;2.28;;;;;;;7.99;54.10;102051.41;5033914;28;20492;-48
2022/04/10 11:18:32;;;;;;;7.35;2.33;;;;;;;8.03;54.38;102052.66;5032430;28;20583;-48
2022/04/10 11:21:11;;;;;;;7.53;2.97;;;;;;;8.02;54.63;102048.25;5034712;28;20033;-49
2022/04/10 11:23:49;;;;;;;5.90;2.45;;;;;;;7.96;53.46;102048.28;5033640;28;20543;-47
2022/04/10 11:26:19;;;;;;;12.27;4.78;;;;;;;7.97;54.36;102053.50;5032653;28;20045;-49
2022/04/10 11:29:04;;;;;;;7.68;2.67;;;;;;;8.00;53.16;102042.22;5034704;28;20037;-48
2022/04/10 11:31:32;;;;;;;7.20;2.45;;;;;;;8.03;53.11;102043.66;5032180;28;20466;-47
2022/04/10 11:34:28;;;;;;;6.38;2.35;;;;;;;8.08;53.06;102041.94;5031734;28;20138;-47
2022/04/10 11:36:59;;;;;;;7.28;2.80;;;;;;;8.14;52.12;102036.69;5043813;28;20049;-47
2022/04/10 11:39:36;;;;;;;7.32;2.60;;;;;;;8.19;52.71;102026.00;5043530;28;20045;-49
2022/04/10 11:42:06;;;;;;;8.18;2.47;;;;;;;8.28;52.34;102038.22;5053706;28;20120;-50
2022/04/10 11:44:34;;;;;;;8.52;2.70;;;;;;;8.39;53.50;102031.22;5052303;28;20041;-48
2022/04/10 11:47:05;;;;;;;5.03;2.22;;;;;;;8.49;51.84;102029.72;5036736;28;20480;-50
2022/04/10 11:49:33;;;;;;;6.25;2.28;;;;;;;8.51;51.37;102027.59;5041707;28;20120;-48
2022/04/10 11:52:02;;;;;;;6.18;2.25;;;;;;;8.52;52.58;102020.28;5037495;28;20040;-53
2022/04/10 11:54:36;;;;;;;8.13;2.40;;;;;;;8.50;52.89;102025.91;5051788;28;20041;-48
2022/04/10 11:57:06;;;;;;;5.75;2.67;;;;;;;8.46;52.56;102038.28;5049422;28;20119;-50
2022/04/10 11:59:39;;;;;;;5.30;2.05;;;;;;;8.36;50.88;102027.06;5045985;28;20037;-46
2022/04/10 12:02:11;;;;;;;8.15;2.42;;;;;;;8.30;50.25;102031.53;5034155;28;20073;-49
2022/04/10 12:04:40;;;;;;;4.57;1.90;;;;;;;8.26;50.06;102018.63;5032536;28;20051;-48
2022/04/10 12:07:19;;;;;;;4.72;2.13;;;;;;;8.29;49.63;102021.69;5032102;28;20508;-47
2022/04/10 12:09:48;;;;;;;8.02;2.42;;;;;;;8.42;50.00;102028.94;5035036;28;20068;-50
2022/04/10 12:12:17;;;;;;;6.03;2.70;;;;;;;8.49;48.66;102024.28;5036734;28;20032;-49
2022/04/10 12:14:46;;;;;;;5.85;2.20;;;;;;;8.53;48.39;102009.16;5044109;28;20376;-49